Terminal Aerodrome Forecast
Issued by NWS

Home | Current Version | Previous Version | Text Only | Print | Product List | Glossary On
Versions: 1 2 3 4 5 6 7 8 9 10 11 12 13 14 15 16 17 18 19 20 21 22 23 24 25 26 27 28
000
FTUS41 KBOX 302320
TAFHYA
TAF
KHYA 302320Z 3100/3124 32011KT 6SM -SN OVC015
     FM310200 32018G26KT P6SM -SN OVC030
     FM310400 32018G32KT 3SM -SN OVC030
     FM310600 31019G34KT 2SM -SN OVC025
     FM311000 32020G40KT 3SM -SN OVC035
     FM311300 32022G44KT P6SM OVC035
     FM312000 32021G42KT P6SM SCT250=

USA.gov is the U.S. government's official web portal to all federal, state and local government web resources and services.